sensor_id;sensor_type;location;lat;lon;timestamp;pressure;altitude;pressure_sealevel;temperature;humidity
61035;BME280;46916;40.564;-7.958;2022-10-16T00:01:23;97263.31;;;16.79;87.31
61035;BME280;46916;40.564;-7.958;2022-10-16T00:03:24;97253.91;;;16.76;87.25
61035;BME280;46916;40.564;-7.958;2022-10-16T00:05:24;97257.53;;;16.75;87.39
61035;BME280;46916;40.564;-7.958;2022-10-16T00:07:25;97275.53;;;16.80;87.59
61035;BME280;46916;40.564;-7.958;2022-10-16T00:09:27;97254.72;;;16.77;87.48
61035;BME280;46916;40.564;-7.958;2022-10-16T00:11:33;97266.59;;;16.81;87.33
61035;BME280;46916;40.564;-7.958;2022-10-16T00:13:35;97261.31;;;16.81;87.05
61035;BME280;46916;40.564;-7.958;2022-10-16T00:15:37;97260.47;;;16.80;87.00
61035;BME280;46916;40.564;-7.958;2022-10-16T00:17:39;97253.91;;;16.76;87.06
61035;BME280;46916;40.564;-7.958;2022-10-16T00:19:40;97261.81;;;16.76;87.21
61035;BME280;46916;40.564;-7.958;2022-10-16T00:21:42;97258.03;;;16.79;87.26
61035;BME280;46916;40.564;-7.958;2022-10-16T00:23:42;97250.09;;;16.71;87.37
61035;BME280;46916;40.564;-7.958;2022-10-16T00:25:43;97257.22;;;16.70;87.78
61035;BME280;46916;40.564;-7.958;2022-10-16T00:27:44;97263.47;;;16.69;88.04
61035;BME280;46916;40.564;-7.958;2022-10-16T00:29:48;97247.16;;;16.66;88.02
61035;BME280;46916;40.564;-7.958;2022-10-16T00:31:49;97239.22;;;16.66;88.20
61035;BME280;46916;40.564;-7.958;2022-10-16T00:33:50;97241.69;;;16.67;88.10
61035;BME280;46916;40.564;-7.958;2022-10-16T00:35:51;97241.50;;;16.69;88.25
61035;BME280;46916;40.564;-7.958;2022-10-16T00:37:51;97235.56;;;16.67;88.28
61035;BME280;46916;40.564;-7.958;2022-10-16T00:39:52;97246.44;;;16.72;88.19
61035;BME280;46916;40.564;-7.958;2022-10-16T00:41:53;97245.97;;;16.68;88.13
61035;BME280;46916;40.564;-7.958;2022-10-16T00:43:58;97244.97;;;16.69;88.32
61035;BME280;46916;40.564;-7.958;2022-10-16T00:46:04;97245.81;;;16.70;88.18
61035;BME280;46916;40.564;-7.958;2022-10-16T00:48:09;97238.69;;;16.70;88.13
61035;BME280;46916;40.564;-7.958;2022-10-16T00:50:20;97237.69;;;16.71;87.88
61035;BME280;46916;40.564;-7.958;2022-10-16T00:52:22;97229.94;;;16.70;87.99
61035;BME280;46916;40.564;-7.958;2022-10-16T00:54:25;97214.75;;;16.64;88.18
61035;BME280;46916;40.564;-7.958;2022-10-16T00:56:26;97225.81;;;16.67;88.17
61035;BME280;46916;40.564;-7.958;2022-10-16T00:58:27;97222.34;;;16.67;87.92
61035;BME280;46916;40.564;-7.958;2022-10-16T01:00:27;97223.34;;;16.66;87.87
61035;BME280;46916;40.564;-7.958;2022-10-16T01:02:28;97238.50;;;16.72;87.64
61035;BME280;46916;40.564;-7.958;2022-10-16T01:04:34;97222.16;;;16.68;87.46
61035;BME280;46916;40.564;-7.958;2022-10-16T01:08:57;97227.31;;;16.70;87.52
61035;BME280;46916;40.564;-7.958;2022-10-16T01:11:17;97220.72;;;16.66;87.56
61035;BME280;46916;40.564;-7.958;2022-10-16T01:13:31;97211.09;;;16.65;87.39
61035;BME280;46916;40.564;-7.958;2022-10-16T01:16:05;97216.88;;;16.68;87.40
61035;BME280;46916;40.564;-7.958;2022-10-16T01:20:22;97215.75;;;16.63;87.37
61035;BME280;46916;40.564;-7.958;2022-10-16T01:22:33;97227.47;;;16.68;87.31
61035;BME280;46916;40.564;-7.958;2022-10-16T01:30:56;97218.06;;;16.66;86.72
61035;BME280;46916;40.564;-7.958;2022-10-16T01:33:10;97211.81;;;16.58;87.07
61035;BME280;46916;40.564;-7.958;2022-10-16T01:35:18;97219.41;;;16.62;87.06
61035;BME280;46916;40.564;-7.958;2022-10-16T01:37:32;97212.44;;;16.60;87.30
61035;BME280;46916;40.564;-7.958;2022-10-16T01:39:38;97213.47;;;16.59;87.20
61035;BME280;46916;40.564;-7.958;2022-10-16T01:41:45;97189.06;;;16.49;87.28
61035;BME280;46916;40.564;-7.958;2022-10-16T01:43:55;97206.53;;;16.58;87.22
61035;BME280;46916;40.564;-7.958;2022-10-16T01:45:59;97194.81;;;16.53;87.40
61035;BME280;46916;40.564;-7.958;2022-10-16T01:48:02;97199.47;;;16.51;87.52
61035;BME280;46916;40.564;-7.958;2022-10-16T01:50:06;97195.00;;;16.51;87.83
61035;BME280;46916;40.564;-7.958;2022-10-16T01:52:15;97194.16;;;16.51;87.82
61035;BME280;46916;40.564;-7.958;2022-10-16T01:54:19;97192.53;;;16.50;88.07
61035;BME280;46916;40.564;-7.958;2022-10-16T01:56:21;97195.28;;;16.56;87.76
61035;BME280;46916;40.564;-7.958;2022-10-16T01:58:23;97189.53;;;16.53;87.86
61035;BME280;46916;40.564;-7.958;2022-10-16T02:00:26;97183.88;;;16.56;87.77
61035;BME280;46916;40.564;-7.958;2022-10-16T02:02:29;97184.22;;;16.53;87.85
61035;BME280;46916;40.564;-7.958;2022-10-16T02:04:34;97195.13;;;16.58;88.05
61035;BME280;46916;40.564;-7.958;2022-10-16T02:06:37;97180.63;;;16.54;87.88
61035;BME280;46916;40.564;-7.958;2022-10-16T02:08:38;97183.41;;;16.52;88.03
61035;BME280;46916;40.564;-7.958;2022-10-16T02:10:40;97185.09;;;16.53;88.30
61035;BME280;46916;40.564;-7.958;2022-10-16T02:12:45;97200.94;;;16.53;88.49
61035;BME280;46916;40.564;-7.958;2022-10-16T02:14:48;97199.94;;;16.54;88.11
61035;BME280;46916;40.564;-7.958;2022-10-16T02:16:50;97189.69;;;16.51;88.27
61035;BME280;46916;40.564;-7.958;2022-10-16T02:18:50;97198.13;;;16.55;88.23
61035;BME280;46916;40.564;-7.958;2022-10-16T02:20:59;97191.81;;;16.56;88.43
61035;BME280;46916;40.564;-7.958;2022-10-16T02:23:01;97182.25;;;16.55;88.18
61035;BME280;46916;40.564;-7.958;2022-10-16T02:27:17;97194.00;;;16.52;88.71
61035;BME280;46916;40.564;-7.958;2022-10-16T02:29:22;97190.72;;;16.50;88.92
61035;BME280;46916;40.564;-7.958;2022-10-16T02:31:27;97196.81;;;16.51;88.99
61035;BME280;46916;40.564;-7.958;2022-10-16T02:33:31;97193.34;;;16.50;88.86
61035;BME280;46916;40.564;-7.958;2022-10-16T02:35:34;97198.63;;;16.50;88.94
61035;BME280;46916;40.564;-7.958;2022-10-16T02:37:37;97190.41;;;16.45;89.06
61035;BME280;46916;40.564;-7.958;2022-10-16T02:39:40;97185.47;;;16.42;89.25
61035;BME280;46916;40.564;-7.958;2022-10-16T02:41:41;97170.13;;;16.38;89.33
61035;BME280;46916;40.564;-7.958;2022-10-16T02:43:42;97184.63;;;16.42;89.42
61035;BME280;46916;40.564;-7.958;2022-10-16T02:45:42;97168.59;;;16.43;89.45
61035;BME280;46916;40.564;-7.958;2022-10-16T02:47:43;97159.84;;;16.43;89.36
61035;BME280;46916;40.564;-7.958;2022-10-16T02:49:44;97159.03;;;16.42;89.35
61035;BME280;46916;40.564;-7.958;2022-10-16T02:51:44;97151.44;;;16.39;89.16
61035;BME280;46916;40.564;-7.958;2022-10-16T02:53:45;97148.47;;;16.42;89.22
61035;BME280;46916;40.564;-7.958;2022-10-16T02:55:46;97149.63;;;16.40;89.22
61035;BME280;46916;40.564;-7.958;2022-10-16T02:57:47;97146.63;;;16.43;89.35
61035;BME280;46916;40.564;-7.958;2022-10-16T02:59:47;97138.69;;;16.43;89.19
61035;BME280;46916;40.564;-7.958;2022-10-16T03:01:48;97147.44;;;16.43;89.40
61035;BME280;46916;40.564;-7.958;2022-10-16T03:03:49;97140.34;;;16.44;89.37
61035;BME280;46916;40.564;-7.958;2022-10-16T03:05:50;97138.03;;;16.41;89.46
61035;BME280;46916;40.564;-7.958;2022-10-16T03:07:51;97131.59;;;16.43;89.23
61035;BME280;46916;40.564;-7.958;2022-10-16T03:09:53;97138.88;;;16.41;89.20
61035;BME280;46916;40.564;-7.958;2022-10-16T03:11:54;97154.22;;;16.46;89.25
61035;BME280;46916;40.564;-7.958;2022-10-16T03:13:55;97144.28;;;16.48;89.00
61035;BME280;46916;40.564;-7.958;2022-10-16T03:15:56;97133.91;;;16.46;89.26
61035;BME280;46916;40.564;-7.958;2022-10-16T03:18:00;97131.13;;;16.40;89.31
61035;BME280;46916;40.564;-7.958;2022-10-16T03:20:00;97124.00;;;16.40;89.28
61035;BME280;46916;40.564;-7.958;2022-10-16T03:22:02;97130.59;;;16.44;89.26
61035;BME280;46916;40.564;-7.958;2022-10-16T03:24:03;97131.13;;;16.40;89.72
61035;BME280;46916;40.564;-7.958;2022-10-16T03:26:04;97133.22;;;16.44;89.71
61035;BME280;46916;40.564;-7.958;2022-10-16T03:28:04;97139.19;;;16.46;89.37
61035;BME280;46916;40.564;-7.958;2022-10-16T03:30:05;97132.06;;;16.47;89.16
61035;BME280;46916;40.564;-7.958;2022-10-16T03:32:06;97117.75;;;16.41;89.13
61035;BME280;46916;40.564;-7.958;2022-10-16T03:34:07;97128.44;;;16.48;88.92
61035;BME280;46916;40.564;-7.958;2022-10-16T03:36:07;97121.84;;;16.44;89.25
61035;BME280;46916;40.564;-7.958;2022-10-16T03:38:08;97143.47;;;16.47;88.78
61035;BME280;46916;40.564;-7.958;2022-10-16T03:40:09;97153.56;;;16.44;89.21
61035;BME280;46916;40.564;-7.958;2022-10-16T03:42:10;97147.44;;;16.43;89.13
61035;BME280;46916;40.564;-7.958;2022-10-16T03:44:11;97147.13;;;16.46;89.14
61035;BME280;46916;40.564;-7.958;2022-10-16T03:46:11;97152.41;;;16.46;89.14
61035;BME280;46916;40.564;-7.958;2022-10-16T03:48:12;97149.09;;;16.44;89.10
61035;BME280;46916;40.564;-7.958;2022-10-16T03:50:13;97142.97;;;16.44;89.12
61035;BME280;46916;40.564;-7.958;2022-10-16T03:52:13;97144.00;;;16.43;89.19
61035;BME280;46916;40.564;-7.958;2022-10-16T03:54:14;97151.09;;;16.42;89.33
61035;BME280;46916;40.564;-7.958;2022-10-16T03:56:14;97141.53;;;16.41;89.35
61035;BME280;46916;40.564;-7.958;2022-10-16T03:58:15;97140.88;;;16.39;89.62
61035;BME280;46916;40.564;-7.958;2022-10-16T04:00:16;97129.00;;;16.35;89.44
61035;BME280;46916;40.564;-7.958;2022-10-16T04:02:17;97135.44;;;16.32;89.53
61035;BME280;46916;40.564;-7.958;2022-10-16T04:04:18;97138.56;;;16.36;89.37
61035;BME280;46916;40.564;-7.958;2022-10-16T04:06:18;97133.97;;;16.30;89.50
61035;BME280;46916;40.564;-7.958;2022-10-16T04:08:19;97130.69;;;16.28;89.89
61035;BME280;46916;40.564;-7.958;2022-10-16T04:10:20;97135.81;;;16.29;90.11
61035;BME280;46916;40.564;-7.958;2022-10-16T04:12:20;97129.84;;;16.27;90.19
61035;BME280;46916;40.564;-7.958;2022-10-16T04:14:21;97128.22;;;16.26;90.44
61035;BME280;46916;40.564;-7.958;2022-10-16T04:16:22;97139.28;;;16.30;90.54
61035;BME280;46916;40.564;-7.958;2022-10-16T04:18:22;97126.06;;;16.30;90.57
61035;BME280;46916;40.564;-7.958;2022-10-16T04:20:23;97130.69;;;16.28;90.92
61035;BME280;46916;40.564;-7.958;2022-10-16T04:22:24;97133.19;;;16.21;90.97
61035;BME280;46916;40.564;-7.958;2022-10-16T04:24:24;97142.28;;;16.19;91.72
61035;BME280;46916;40.564;-7.958;2022-10-16T04:26:25;97142.28;;;16.19;91.96
61035;BME280;46916;40.564;-7.958;2022-10-16T04:28:26;97141.47;;;16.18;92.09
61035;BME280;46916;40.564;-7.958;2022-10-16T04:30:27;97126.09;;;16.22;92.00
61035;BME280;46916;40.564;-7.958;2022-10-16T04:32:27;97134.84;;;16.22;92.17
61035;BME280;46916;40.564;-7.958;2022-10-16T04:34:28;97126.09;;;16.22;91.91
61035;BME280;46916;40.564;-7.958;2022-10-16T04:36:29;97118.50;;;16.19;91.93
61035;BME280;46916;40.564;-7.958;2022-10-16T04:38:29;97125.09;;;16.23;91.82
61035;BME280;46916;40.564;-7.958;2022-10-16T04:40:30;97120.16;;;16.20;91.89
61035;BME280;46916;40.564;-7.958;2022-10-16T04:42:36;97123.78;;;16.19;91.97
61035;BME280;46916;40.564;-7.958;2022-10-16T04:44:37;97135.38;;;16.18;92.13
61035;BME280;46916;40.564;-7.958;2022-10-16T04:46:38;97134.41;;;16.10;92.46
61035;BME280;46916;40.564;-7.958;2022-10-16T04:48:38;97130.78;;;16.03;92.74
61035;BME280;46916;40.564;-7.958;2022-10-16T04:50:39;97133.28;;;16.05;92.95
61035;BME280;46916;40.564;-7.958;2022-10-16T04:52:40;97137.88;;;16.03;92.52
61035;BME280;46916;40.564;-7.958;2022-10-16T04:54:40;97147.63;;;16.02;92.69
61035;BME280;46916;40.564;-7.958;2022-10-16T04:56:41;97140.03;;;15.99;92.23
61035;BME280;46916;40.564;-7.958;2022-10-16T04:58:47;97146.00;;;16.01;92.14
61035;BME280;46916;40.564;-7.958;2022-10-16T05:00:47;97143.53;;;15.92;92.50
61035;BME280;46916;40.564;-7.958;2022-10-16T05:02:50;97154.59;;;15.95;93.08
61035;BME280;46916;40.564;-7.958;2022-10-16T05:04:51;97154.25;;;15.98;92.52
61035;BME280;46916;40.564;-7.958;2022-10-16T05:06:52;97148.97;;;15.98;92.46
61035;BME280;46916;40.564;-7.958;2022-10-16T05:08:52;97146.03;;;15.93;92.61
61035;BME280;46916;40.564;-7.958;2022-10-16T05:10:53;97144.34;;;16.00;92.38
61035;BME280;46916;40.564;-7.958;2022-10-16T05:12:53;97147.00;;;16.00;92.22
61035;BME280;46916;40.564;-7.958;2022-10-16T05:14:54;97150.13;;;15.96;92.65
61035;BME280;46916;40.564;-7.958;2022-10-16T05:16:59;97160.88;;;15.94;92.17
61035;BME280;46916;40.564;-7.958;2022-10-16T05:19:00;97158.06;;;15.88;92.16
61035;BME280;46916;40.564;-7.958;2022-10-16T05:21:01;97162.38;;;15.89;92.00
61035;BME280;46916;40.564;-7.958;2022-10-16T05:23:01;97169.47;;;15.88;92.23
61035;BME280;46916;40.564;-7.958;2022-10-16T05:25:02;97172.13;;;15.88;92.15
61035;BME280;46916;40.564;-7.958;2022-10-16T05:27:03;97169.31;;;15.90;92.08
61035;BME280;46916;40.564;-7.958;2022-10-16T05:29:04;97160.56;;;15.89;92.33
61035;BME280;46916;40.564;-7.958;2022-10-16T05:31:08;97169.94;;;15.92;92.29
61035;BME280;46916;40.564;-7.958;2022-10-16T05:33:09;97161.56;;;15.88;92.11
61035;BME280;46916;40.564;-7.958;2022-10-16T05:35:10;97163.03;;;15.91;91.98
61035;BME280;46916;40.564;-7.958;2022-10-16T05:37:11;97175.72;;;15.95;91.71
61035;BME280;46916;40.564;-7.958;2022-10-16T05:39:14;97158.56;;;15.91;91.65
61035;BME280;46916;40.564;-7.958;2022-10-16T05:41:15;97159.53;;;15.98;91.44
61035;BME280;46916;40.564;-7.958;2022-10-16T05:43:21;97168.13;;;16.00;91.05
61035;BME280;46916;40.564;-7.958;2022-10-16T05:45:22;97171.41;;;16.02;90.78
61035;BME280;46916;40.564;-7.958;2022-10-16T05:47:23;97172.53;;;16.08;90.45
61035;BME280;46916;40.564;-7.958;2022-10-16T05:49:24;97181.13;;;16.10;89.60
61035;BME280;46916;40.564;-7.958;2022-10-16T05:51:24;97174.34;;;16.07;89.57
61035;BME280;46916;40.564;-7.958;2022-10-16T05:53:27;97170.75;;;16.08;89.75
61035;BME280;46916;40.564;-7.958;2022-10-16T05:55:28;97174.53;;;16.06;89.75
61035;BME280;46916;40.564;-7.958;2022-10-16T05:57:28;97168.44;;;16.05;89.95
61035;BME280;46916;40.564;-7.958;2022-10-16T05:59:30;97172.22;;;16.03;90.03
61035;BME280;46916;40.564;-7.958;2022-10-16T06:01:30;97165.94;;;16.04;89.62
61035;BME280;46916;40.564;-7.958;2022-10-16T06:03:31;97185.28;;;16.04;89.21
61035;BME280;46916;40.564;-7.958;2022-10-16T06:05:32;97194.16;;;16.12;89.09
61035;BME280;46916;40.564;-7.958;2022-10-16T06:07:35;97196.66;;;16.13;88.42
61035;BME280;46916;40.564;-7.958;2022-10-16T06:09:36;97200.09;;;16.14;87.97
61035;BME280;46916;40.564;-7.958;2022-10-16T06:11:37;97196.31;;;16.08;87.90
61035;BME280;46916;40.564;-7.958;2022-10-16T06:13:38;97201.09;;;16.13;87.34
61035;BME280;46916;40.564;-7.958;2022-10-16T06:15:42;97195.81;;;16.13;87.31
61035;BME280;46916;40.564;-7.958;2022-10-16T06:17:43;97203.75;;;16.13;87.18
61035;BME280;46916;40.564;-7.958;2022-10-16T06:19:43;97204.72;;;16.12;87.18
61035;BME280;46916;40.564;-7.958;2022-10-16T06:21:44;97202.06;;;16.12;86.61
61035;BME280;46916;40.564;-7.958;2022-10-16T06:23:45;97207.34;;;16.12;86.59
61035;BME280;46916;40.564;-7.958;2022-10-16T06:25:46;97208.38;;;16.10;86.17
61035;BME280;46916;40.564;-7.958;2022-10-16T06:27:47;97207.34;;;16.12;86.28
61035;BME280;46916;40.564;-7.958;2022-10-16T06:29:48;97211.69;;;16.13;86.12
61035;BME280;46916;40.564;-7.958;2022-10-16T06:31:49;97214.13;;;16.14;86.04
61035;BME280;46916;40.564;-7.958;2022-10-16T06:33:50;97216.78;;;16.14;85.89
61035;BME280;46916;40.564;-7.958;2022-10-16T06:35:51;97215.47;;;16.10;85.75
61035;BME280;46916;40.564;-7.958;2022-10-16T06:37:54;97221.56;;;16.10;85.41
61035;BME280;46916;40.564;-7.958;2022-10-16T06:39:55;97220.75;;;16.10;85.15
61035;BME280;46916;40.564;-7.958;2022-10-16T06:41:56;97219.25;;;16.16;85.02
61035;BME280;46916;40.564;-7.958;2022-10-16T06:44:06;97214.47;;;16.11;84.88
61035;BME280;46916;40.564;-7.958;2022-10-16T06:46:10;97215.97;;;16.14;84.56
61035;BME280;46916;40.564;-7.958;2022-10-16T06:48:11;97213.66;;;16.10;84.69
61035;BME280;46916;40.564;-7.958;2022-10-16T06:50:11;97221.25;;;16.14;84.40
61035;BME280;46916;40.564;-7.958;2022-10-16T06:52:12;97235.91;;;16.16;84.44
61035;BME280;46916;40.564;-7.958;2022-10-16T06:54:14;97234.94;;;16.17;84.34
61035;BME280;46916;40.564;-7.958;2022-10-16T06:56:23;97231.00;;;16.13;84.27
61035;BME280;46916;40.564;-7.958;2022-10-16T06:58:24;97234.94;;;16.17;84.10
61035;BME280;46916;40.564;-7.958;2022-10-16T07:00:25;97238.22;;;16.19;84.03
61035;BME280;46916;40.564;-7.958;2022-10-16T07:02:26;97236.41;;;16.20;83.91
61035;BME280;46916;40.564;-7.958;2022-10-16T07:04:26;97233.44;;;16.15;83.88
61035;BME280;46916;40.564;-7.958;2022-10-16T07:06:31;97237.91;;;16.14;83.81
61035;BME280;46916;40.564;-7.958;2022-10-16T07:08:36;97239.72;;;16.22;83.57
61035;BME280;46916;40.564;-7.958;2022-10-16T07:10:37;97231.59;;;16.23;83.68
61035;BME280;46916;40.564;-7.958;2022-10-16T07:12:38;97230.78;;;16.23;83.38
61035;BME280;46916;40.564;-7.958;2022-10-16T07:14:38;97227.13;;;16.24;83.21
61035;BME280;46916;40.564;-7.958;2022-10-16T07:16:39;97239.84;;;16.28;82.43
61035;BME280;46916;40.564;-7.958;2022-10-16T07:18:40;97241.00;;;16.34;82.55
61035;BME280;46916;40.564;-7.958;2022-10-16T07:20:42;97249.56;;;16.36;82.17
61035;BME280;46916;40.564;-7.958;2022-10-16T07:22:43;97252.06;;;16.38;82.04
61035;BME280;46916;40.564;-7.958;2022-10-16T07:24:44;97251.38;;;16.35;81.64
61035;BME280;46916;40.564;-7.958;2022-10-16T07:26:45;97253.50;;;16.40;81.26
61035;BME280;46916;40.564;-7.958;2022-10-16T07:28:46;97248.91;;;16.34;81.36
61035;BME280;46916;40.564;-7.958;2022-10-16T07:30:47;97258.50;;;16.35;81.38
61035;BME280;46916;40.564;-7.958;2022-10-16T07:32:48;97257.19;;;16.31;81.60
61035;BME280;46916;40.564;-7.958;2022-10-16T07:34:49;97263.97;;;16.33;81.66
61035;BME280;46916;40.564;-7.958;2022-10-16T07:36:50;97265.09;;;16.31;81.80
61035;BME280;46916;40.564;-7.958;2022-10-16T07:38:51;97261.47;;;16.32;81.74
61035;BME280;46916;40.564;-7.958;2022-10-16T07:41:03;97271.38;;;16.38;81.95
61035;BME280;46916;40.564;-7.958;2022-10-16T07:43:04;97269.72;;;16.45;81.76
61035;BME280;46916;40.564;-7.958;2022-10-16T07:45:06;97274.97;;;16.53;81.46
61035;BME280;46916;40.564;-7.958;2022-10-16T07:47:07;97267.59;;;16.72;81.12
61035;BME280;46916;40.564;-7.958;2022-10-16T07:49:08;97268.56;;;16.87;80.58
61035;BME280;46916;40.564;-7.958;2022-10-16T07:51:09;97265.38;;;16.92;79.75
61035;BME280;46916;40.564;-7.958;2022-10-16T07:53:10;97266.75;;;16.88;79.94
61035;BME280;46916;40.564;-7.958;2022-10-16T07:55:11;97262.25;;;16.88;80.03
61035;BME280;46916;40.564;-7.958;2022-10-16T07:57:11;97268.84;;;16.92;79.29
61035;BME280;46916;40.564;-7.958;2022-10-16T07:59:12;97271.31;;;16.94;79.17
61035;BME280;46916;40.564;-7.958;2022-10-16T08:01:14;97267.16;;;16.99;78.49
61035;BME280;46916;40.564;-7.958;2022-10-16T08:03:15;97247.41;;;17.10;78.14
61035;BME280;46916;40.564;-7.958;2022-10-16T08:05:16;97262.69;;;17.31;77.47
61035;BME280;46916;40.564;-7.958;2022-10-16T08:07:17;97249.75;;;17.36;77.03
61035;BME280;46916;40.564;-7.958;2022-10-16T08:09:17;97259.59;;;17.42;76.63
61035;BME280;46916;40.564;-7.958;2022-10-16T08:11:18;97270.91;;;17.36;76.24
61035;BME280;46916;40.564;-7.958;2022-10-16T08:13:19;97271.97;;;17.27;77.01
61035;BME280;46916;40.564;-7.958;2022-10-16T08:15:20;97261.94;;;17.14;77.24
61035;BME280;46916;40.564;-7.958;2022-10-16T08:17:21;97282.81;;;17.09;77.51
61035;BME280;46916;40.564;-7.958;2022-10-16T08:19:21;97279.72;;;16.97;78.14
61035;BME280;46916;40.564;-7.958;2022-10-16T08:21:22;97279.78;;;16.89;78.75
61035;BME280;46916;40.564;-7.958;2022-10-16T08:23:24;97294.00;;;16.88;78.73
61035;BME280;46916;40.564;-7.958;2022-10-16T08:25:26;97283.47;;;16.80;79.31
61035;BME280;46916;40.564;-7.958;2022-10-16T08:27:33;97275.53;;;16.72;79.68
61035;BME280;46916;40.564;-7.958;2022-10-16T08:29:34;97295.38;;;16.76;80.03
61035;BME280;46916;40.564;-7.958;2022-10-16T08:31:35;97292.41;;;16.71;79.94
61035;BME280;46916;40.564;-7.958;2022-10-16T08:33:37;97285.47;;;16.70;79.96
61035;BME280;46916;40.564;-7.958;2022-10-16T08:35:37;97289.56;;;16.72;80.05
61035;BME280;46916;40.564;-7.958;2022-10-16T08:37:39;97291.09;;;16.67;79.93
61035;BME280;46916;40.564;-7.958;2022-10-16T08:39:39;97296.38;;;16.67;79.83
61035;BME280;46916;40.564;-7.958;2022-10-16T08:42:07;97305.78;;;16.69;79.90
61035;BME280;46916;40.564;-7.958;2022-10-16T08:48:59;97308.59;;;16.68;79.88
61035;BME280;46916;40.564;-7.958;2022-10-16T08:51:02;97298.53;;;16.63;80.19
61035;BME280;46916;40.564;-7.958;2022-10-16T08:53:05;97313.06;;;16.67;80.05
61035;BME280;46916;40.564;-7.958;2022-10-16T08:55:19;97290.44;;;16.65;79.82
61035;BME280;46916;40.564;-7.958;2022-10-16T08:57:25;97298.84;;;16.68;79.85
61035;BME280;46916;40.564;-7.958;2022-10-16T08:59:29;97297.03;;;16.69;80.00
61035;BME280;46916;40.564;-7.958;2022-10-16T09:01:40;97295.19;;;16.69;79.99
61035;BME280;46916;40.564;-7.958;2022-10-16T09:08:53;97289.47;;;16.74;79.72
61035;BME280;46916;40.564;-7.958;2022-10-16T09:13:26;97308.75;;;16.82;79.39
61035;BME280;46916;40.564;-7.958;2022-10-16T09:15:46;97308.56;;;16.84;79.00
61035;BME280;46916;40.564;-7.958;2022-10-16T09:20:19;97310.22;;;16.85;78.83
61035;BME280;46916;40.564;-7.958;2022-10-16T09:22:27;97301.97;;;16.80;78.83
61035;BME280;46916;40.564;-7.958;2022-10-16T09:24:29;97293.53;;;16.84;78.52
61035;BME280;46916;40.564;-7.958;2022-10-16T09:26:30;97296.00;;;16.86;78.67
61035;BME280;46916;40.564;-7.958;2022-10-16T09:28:31;97302.63;;;16.90;78.43
61035;BME280;46916;40.564;-7.958;2022-10-16T09:30:31;97313.63;;;16.94;78.41
61035;BME280;46916;40.564;-7.958;2022-10-16T09:32:32;97303.25;;;16.92;78.06
61035;BME280;46916;40.564;-7.958;2022-10-16T09:34:36;97316.78;;;16.97;78.18
61035;BME280;46916;40.564;-7.958;2022-10-16T09:36:43;97310.50;;;16.98;77.84
61035;BME280;46916;40.564;-7.958;2022-10-16T09:38:45;97315.38;;;17.09;77.52
61035;BME280;46916;40.564;-7.958;2022-10-16T09:40:45;97307.28;;;17.11;77.46
61035;BME280;46916;40.564;-7.958;2022-10-16T09:42:46;97316.00;;;17.20;77.31
61035;BME280;46916;40.564;-7.958;2022-10-16T09:44:48;97318.59;;;17.28;77.00
61035;BME280;46916;40.564;-7.958;2022-10-16T09:47:03;97329.31;;;17.34;76.26
61035;BME280;46916;40.564;-7.958;2022-10-16T09:49:22;97316.38;;;17.40;75.99
61035;BME280;46916;40.564;-7.958;2022-10-16T09:51:35;97309.91;;;17.42;75.94
61035;BME280;46916;40.564;-7.958;2022-10-16T09:53:44;97318.31;;;17.46;75.50
61035;BME280;46916;40.564;-7.958;2022-10-16T09:55:53;97327.03;;;17.54;75.35
61035;BME280;46916;40.564;-7.958;2022-10-16T09:57:54;97324.56;;;17.53;74.86
61035;BME280;46916;40.564;-7.958;2022-10-16T09:59:57;97322.41;;;17.56;74.20
61035;BME280;46916;40.564;-7.958;2022-10-16T10:02:02;97320.91;;;17.54;73.92
61035;BME280;46916;40.564;-7.958;2022-10-16T10:04:04;97322.88;;;17.60;73.78
61035;BME280;46916;40.564;-7.958;2022-10-16T10:06:26;97326.69;;;17.57;74.33
61035;BME280;46916;40.564;-7.958;2022-10-16T10:08:27;97326.88;;;17.56;74.11
61035;BME280;46916;40.564;-7.958;2022-10-16T10:10:30;97314.44;;;17.56;73.96
61035;BME280;46916;40.564;-7.958;2022-10-16T10:12:33;97312.81;;;17.55;73.80
61035;BME280;46916;40.564;-7.958;2022-10-16T10:14:44;97312.81;;;17.55;73.98
61035;BME280;46916;40.564;-7.958;2022-10-16T10:16:47;97305.03;;;17.54;73.85
61035;BME280;46916;40.564;-7.958;2022-10-16T10:18:58;97308.50;;;17.54;74.06
61035;BME280;46916;40.564;-7.958;2022-10-16T10:21:00;97308.50;;;17.54;74.12
61035;BME280;46916;40.564;-7.958;2022-10-16T10:23:28;97311.16;;;17.54;73.94
61035;BME280;46916;40.564;-7.958;2022-10-16T10:36:36;97269.84;;;17.68;73.09
61035;BME280;46916;40.564;-7.958;2022-10-16T10:38:54;97270.78;;;17.75;72.91
61035;BME280;46916;40.564;-7.958;2022-10-16T10:41:01;97274.13;;;17.69;72.37
61035;BME280;46916;40.564;-7.958;2022-10-16T10:43:23;97294.94;;;17.80;72.73
61035;BME280;46916;40.564;-7.958;2022-10-16T10:45:28;97290.75;;;17.86;72.29
61035;BME280;46916;40.564;-7.958;2022-10-16T10:47:56;97291.22;;;17.90;71.85
61035;BME280;46916;40.564;-7.958;2022-10-16T10:50:14;97289.84;;;17.94;71.06
61035;BME280;46916;40.564;-7.958;2022-10-16T10:52:51;97297.06;;;18.00;71.20
61035;BME280;46916;40.564;-7.958;2022-10-16T10:57:30;97286.38;;;18.08;71.07
61035;BME280;46916;40.564;-7.958;2022-10-16T11:06:52;97286.13;;;18.18;70.27
61035;BME280;46916;40.564;-7.958;2022-10-16T11:09:02;97269.41;;;18.17;69.98
61035;BME280;46916;40.564;-7.958;2022-10-16T11:11:15;97269.22;;;18.19;69.80
61035;BME280;46916;40.564;-7.958;2022-10-16T11:13:47;97274.81;;;18.24;69.74
61035;BME280;46916;40.564;-7.958;2022-10-16T11:16:00;97265.69;;;18.26;69.69
61035;BME280;46916;40.564;-7.958;2022-10-16T11:18:21;97258.81;;;18.32;69.43
61035;BME280;46916;40.564;-7.958;2022-10-16T11:20:54;97254.63;;;18.38;69.28
61035;BME280;46916;40.564;-7.958;2022-10-16T11:25:26;97225.72;;;18.43;69.29
61035;BME280;46916;40.564;-7.958;2022-10-16T11:27:43;97227.09;;;18.53;69.39
61035;BME280;46916;40.564;-7.958;2022-10-16T11:29:53;97227.34;;;18.59;69.32
61035;BME280;46916;40.564;-7.958;2022-10-16T11:32:04;97225.16;;;18.62;68.75
61035;BME280;46916;40.564;-7.958;2022-10-16T11:34:31;97219.28;;;18.67;69.05
61035;BME280;46916;40.564;-7.958;2022-10-16T11:36:40;97219.91;;;18.69;68.88
61035;BME280;46916;40.564;-7.958;2022-10-16T11:39:02;97204.00;;;18.69;68.85